sensor_id;sensor_type;location;lat;lon;timestamp;P1;durP1;ratioP1;P2;durP2;ratioP2
18752;SDS011;9505;50.882;5.350;2022-10-24T00:00:59;11.32;;;2.22;;
18752;SDS011;9505;50.882;5.350;2022-10-24T00:03:25;9.07;;;2.40;;
18752;SDS011;9505;50.882;5.350;2022-10-24T00:05:50;14.85;;;3.72;;
18752;SDS011;9505;50.882;5.350;2022-10-24T00:08:16;19.13;;;2.63;;
18752;SDS011;9505;50.882;5.350;2022-10-24T00:10:46;15.60;;;2.75;;
18752;SDS011;9505;50.882;5.350;2022-10-24T00:13:13;16.92;;;2.65;;
18752;SDS011;9505;50.882;5.350;2022-10-24T00:15:47;19.35;;;3.17;;
18752;SDS011;9505;50.882;5.350;2022-10-24T00:18:13;17.88;;;2.85;;
18752;SDS011;9505;50.882;5.350;2022-10-24T00:20:39;15.02;;;2.67;;
18752;SDS011;9505;50.882;5.350;2022-10-24T00:23:05;7.15;;;2.17;;
18752;SDS011;9505;50.882;5.350;2022-10-24T00:25:31;17.15;;;2.95;;
18752;SDS011;9505;50.882;5.350;2022-10-24T00:27:57;15.27;;;2.08;;
18752;SDS011;9505;50.882;5.350;2022-10-24T00:30:23;8.93;;;1.67;;
18752;SDS011;9505;50.882;5.350;2022-10-24T00:32:49;10.68;;;2.10;;
18752;SDS011;9505;50.882;5.350;2022-10-24T00:35:15;16.17;;;2.40;;
18752;SDS011;9505;50.882;5.350;2022-10-24T00:37:41;17.75;;;2.55;;
18752;SDS011;9505;50.882;5.350;2022-10-24T00:40:07;14.35;;;2.20;;
18752;SDS011;9505;50.882;5.350;2022-10-24T00:42:34;14.15;;;2.05;;
18752;SDS011;9505;50.882;5.350;2022-10-24T00:45:00;17.15;;;2.58;;
18752;SDS011;9505;50.882;5.350;2022-10-24T00:48:00;9.57;;;1.90;;
18752;SDS011;9505;50.882;5.350;2022-10-24T00:50:26;12.32;;;1.90;;
18752;SDS011;9505;50.882;5.350;2022-10-24T00:52:52;18.13;;;2.22;;
18752;SDS011;9505;50.882;5.350;2022-10-24T00:55:19;11.13;;;1.92;;
18752;SDS011;9505;50.882;5.350;2022-10-24T00:57:52;12.77;;;2.05;;
18752;SDS011;9505;50.882;5.350;2022-10-24T01:00:22;11.38;;;1.80;;
18752;SDS011;9505;50.882;5.350;2022-10-24T01:02:50;17.05;;;2.22;;
18752;SDS011;9505;50.882;5.350;2022-10-24T01:05:16;9.88;;;1.90;;
18752;SDS011;9505;50.882;5.350;2022-10-24T01:07:56;14.15;;;2.33;;
18752;SDS011;9505;50.882;5.350;2022-10-24T01:15:52;13.98;;;2.55;;
18752;SDS011;9505;50.882;5.350;2022-10-24T01:18:47;14.35;;;1.98;;
18752;SDS011;9505;50.882;5.350;2022-10-24T01:35:07;13.07;;;1.80;;
18752;SDS011;9505;50.882;5.350;2022-10-24T01:37:47;15.75;;;2.22;;
18752;SDS011;9505;50.882;5.350;2022-10-24T01:40:22;7.00;;;1.42;;
18752;SDS011;9505;50.882;5.350;2022-10-24T01:42:53;14.27;;;2.20;;
18752;SDS011;9505;50.882;5.350;2022-10-24T01:45:25;16.42;;;2.17;;
18752;SDS011;9505;50.882;5.350;2022-10-24T01:47:57;15.40;;;2.25;;
18752;SDS011;9505;50.882;5.350;2022-10-24T01:50:26;12.45;;;2.17;;
18752;SDS011;9505;50.882;5.350;2022-10-24T01:52:53;10.20;;;1.52;;
18752;SDS011;9505;50.882;5.350;2022-10-24T01:55:21;13.50;;;2.22;;
18752;SDS011;9505;50.882;5.350;2022-10-24T01:57:48;13.93;;;2.22;;
18752;SDS011;9505;50.882;5.350;2022-10-24T02:00:18;7.93;;;1.95;;
18752;SDS011;9505;50.882;5.350;2022-10-24T02:02:47;14.10;;;1.83;;
18752;SDS011;9505;50.882;5.350;2022-10-24T02:05:24;12.15;;;1.77;;
18752;SDS011;9505;50.882;5.350;2022-10-24T02:07:56;15.73;;;2.22;;
18752;SDS011;9505;50.882;5.350;2022-10-24T02:10:27;14.27;;;2.08;;
18752;SDS011;9505;50.882;5.350;2022-10-24T02:12:58;14.13;;;2.10;;
18752;SDS011;9505;50.882;5.350;2022-10-24T02:15:32;12.25;;;1.60;;
18752;SDS011;9505;50.882;5.350;2022-10-24T02:18:01;14.98;;;2.13;;
18752;SDS011;9505;50.882;5.350;2022-10-24T02:20:28;13.40;;;2.30;;
18752;SDS011;9505;50.882;5.350;2022-10-24T02:23:21;12.20;;;1.80;;
18752;SDS011;9505;50.882;5.350;2022-10-24T02:26:04;16.63;;;2.30;;
18752;SDS011;9505;50.882;5.350;2022-10-24T02:28:38;12.93;;;1.88;;
18752;SDS011;9505;50.882;5.350;2022-10-24T02:31:14;16.70;;;2.22;;
18752;SDS011;9505;50.882;5.350;2022-10-24T02:33:45;14.00;;;2.03;;
18752;SDS011;9505;50.882;5.350;2022-10-24T02:36:15;9.45;;;1.75;;
18752;SDS011;9505;50.882;5.350;2022-10-24T02:38:45;6.32;;;1.20;;
18752;SDS011;9505;50.882;5.350;2022-10-24T02:41:17;11.20;;;1.45;;
18752;SDS011;9505;50.882;5.350;2022-10-24T02:43:50;16.98;;;2.40;;
18752;SDS011;9505;50.882;5.350;2022-10-24T02:46:17;14.57;;;1.92;;
18752;SDS011;9505;50.882;5.350;2022-10-24T02:48:46;14.25;;;1.60;;
18752;SDS011;9505;50.882;5.350;2022-10-24T02:51:19;15.75;;;2.35;;
18752;SDS011;9505;50.882;5.350;2022-10-24T02:53:46;11.82;;;1.67;;
18752;SDS011;9505;50.882;5.350;2022-10-24T02:56:13;14.43;;;2.45;;
18752;SDS011;9505;50.882;5.350;2022-10-24T02:58:39;7.68;;;1.48;;
18752;SDS011;9505;50.882;5.350;2022-10-24T03:01:04;16.90;;;2.42;;
18752;SDS011;9505;50.882;5.350;2022-10-24T03:03:30;20.90;;;2.80;;
18752;SDS011;9505;50.882;5.350;2022-10-24T03:05:56;9.05;;;1.67;;
18752;SDS011;9505;50.882;5.350;2022-10-24T03:08:21;10.40;;;1.60;;
18752;SDS011;9505;50.882;5.350;2022-10-24T03:10:47;14.85;;;2.03;;
18752;SDS011;9505;50.882;5.350;2022-10-24T03:13:12;15.82;;;1.80;;
18752;SDS011;9505;50.882;5.350;2022-10-24T03:15:38;13.48;;;2.03;;
18752;SDS011;9505;50.882;5.350;2022-10-24T03:18:03;14.55;;;2.05;;
18752;SDS011;9505;50.882;5.350;2022-10-24T03:20:29;16.52;;;2.03;;
18752;SDS011;9505;50.882;5.350;2022-10-24T03:22:55;9.10;;;1.40;;
18752;SDS011;9505;50.882;5.350;2022-10-24T03:25:20;20.67;;;1.95;;
18752;SDS011;9505;50.882;5.350;2022-10-24T03:27:46;14.40;;;1.58;;
18752;SDS011;9505;50.882;5.350;2022-10-24T03:30:12;7.20;;;1.20;;
18752;SDS011;9505;50.882;5.350;2022-10-24T03:32:37;13.70;;;2.15;;
18752;SDS011;9505;50.882;5.350;2022-10-24T03:35:03;14.02;;;1.88;;
18752;SDS011;9505;50.882;5.350;2022-10-24T03:37:29;10.80;;;1.70;;
18752;SDS011;9505;50.882;5.350;2022-10-24T03:39:54;13.88;;;2.03;;
18752;SDS011;9505;50.882;5.350;2022-10-24T03:42:20;14.68;;;1.95;;
18752;SDS011;9505;50.882;5.350;2022-10-24T03:44:46;20.08;;;2.53;;
18752;SDS011;9505;50.882;5.350;2022-10-24T03:47:12;17.50;;;2.30;;
18752;SDS011;9505;50.882;5.350;2022-10-24T03:49:37;14.50;;;2.13;;
18752;SDS011;9505;50.882;5.350;2022-10-24T03:52:03;25.13;;;2.72;;
18752;SDS011;9505;50.882;5.350;2022-10-24T03:54:29;19.45;;;2.53;;
18752;SDS011;9505;50.882;5.350;2022-10-24T03:56:55;9.43;;;1.55;;
18752;SDS011;9505;50.882;5.350;2022-10-24T03:59:20;18.13;;;2.05;;
18752;SDS011;9505;50.882;5.350;2022-10-24T04:01:46;17.98;;;2.00;;
18752;SDS011;9505;50.882;5.350;2022-10-24T04:04:11;14.27;;;1.98;;
18752;SDS011;9505;50.882;5.350;2022-10-24T04:06:37;13.20;;;1.92;;
18752;SDS011;9505;50.882;5.350;2022-10-24T04:09:04;12.73;;;1.90;;
18752;SDS011;9505;50.882;5.350;2022-10-24T04:11:31;15.23;;;1.83;;
18752;SDS011;9505;50.882;5.350;2022-10-24T04:13:57;10.40;;;1.60;;
18752;SDS011;9505;50.882;5.350;2022-10-24T04:16:24;11.05;;;2.08;;
18752;SDS011;9505;50.882;5.350;2022-10-24T04:18:50;13.32;;;1.75;;
18752;SDS011;9505;50.882;5.350;2022-10-24T04:21:16;18.98;;;2.75;;
18752;SDS011;9505;50.882;5.350;2022-10-24T04:23:42;19.55;;;2.22;;
18752;SDS011;9505;50.882;5.350;2022-10-24T04:26:12;14.27;;;2.40;;
18752;SDS011;9505;50.882;5.350;2022-10-24T04:28:39;11.80;;;1.75;;
18752;SDS011;9505;50.882;5.350;2022-10-24T04:31:05;11.52;;;1.75;;
18752;SDS011;9505;50.882;5.350;2022-10-24T04:33:30;10.98;;;1.65;;
18752;SDS011;9505;50.882;5.350;2022-10-24T04:35:56;16.17;;;2.13;;
18752;SDS011;9505;50.882;5.350;2022-10-24T04:38:22;21.25;;;2.45;;
18752;SDS011;9505;50.882;5.350;2022-10-24T04:40:48;23.08;;;2.05;;
18752;SDS011;9505;50.882;5.350;2022-10-24T04:43:16;17.98;;;2.22;;
18752;SDS011;9505;50.882;5.350;2022-10-24T04:45:43;18.02;;;2.58;;
18752;SDS011;9505;50.882;5.350;2022-10-24T04:48:09;14.15;;;1.67;;
18752;SDS011;9505;50.882;5.350;2022-10-24T04:50:34;18.42;;;2.00;;
18752;SDS011;9505;50.882;5.350;2022-10-24T04:53:00;19.00;;;2.40;;
18752;SDS011;9505;50.882;5.350;2022-10-24T04:55:26;18.17;;;1.90;;
18752;SDS011;9505;50.882;5.350;2022-10-24T04:57:52;10.68;;;1.73;;
18752;SDS011;9505;50.882;5.350;2022-10-24T05:00:17;15.88;;;2.22;;
18752;SDS011;9505;50.882;5.350;2022-10-24T05:02:43;12.98;;;1.65;;
18752;SDS011;9505;50.882;5.350;2022-10-24T05:05:09;13.00;;;1.75;;
18752;SDS011;9505;50.882;5.350;2022-10-24T05:07:35;19.10;;;1.60;;
18752;SDS011;9505;50.882;5.350;2022-10-24T05:10:01;8.93;;;1.15;;
18752;SDS011;9505;50.882;5.350;2022-10-24T05:12:27;15.45;;;1.70;;
18752;SDS011;9505;50.882;5.350;2022-10-24T05:14:53;14.05;;;1.88;;
18752;SDS011;9505;50.882;5.350;2022-10-24T05:17:18;22.92;;;2.72;;
18752;SDS011;9505;50.882;5.350;2022-10-24T05:19:44;17.23;;;2.35;;
18752;SDS011;9505;50.882;5.350;2022-10-24T05:22:10;16.45;;;2.08;;
18752;SDS011;9505;50.882;5.350;2022-10-24T05:24:35;23.55;;;2.72;;
18752;SDS011;9505;50.882;5.350;2022-10-24T05:27:01;16.00;;;1.63;;
18752;SDS011;9505;50.882;5.350;2022-10-24T05:29:27;18.92;;;1.92;;
18752;SDS011;9505;50.882;5.350;2022-10-24T05:31:52;23.40;;;3.15;;
18752;SDS011;9505;50.882;5.350;2022-10-24T05:34:18;19.23;;;2.08;;
18752;SDS011;9505;50.882;5.350;2022-10-24T05:36:43;20.25;;;2.25;;
18752;SDS011;9505;50.882;5.350;2022-10-24T05:39:09;19.55;;;2.22;;
18752;SDS011;9505;50.882;5.350;2022-10-24T05:41:34;26.10;;;2.65;;
18752;SDS011;9505;50.882;5.350;2022-10-24T05:44:00;14.95;;;1.63;;
18752;SDS011;9505;50.882;5.350;2022-10-24T05:46:26;19.17;;;2.80;;
18752;SDS011;9505;50.882;5.350;2022-10-24T05:48:52;16.90;;;2.05;;
18752;SDS011;9505;50.882;5.350;2022-10-24T05:51:17;14.77;;;2.25;;
18752;SDS011;9505;50.882;5.350;2022-10-24T05:53:43;16.00;;;2.00;;
18752;SDS011;9505;50.882;5.350;2022-10-24T05:56:09;12.05;;;1.60;;
18752;SDS011;9505;50.882;5.350;2022-10-24T05:58:34;10.55;;;1.17;;
18752;SDS011;9505;50.882;5.350;2022-10-24T06:01:00;7.57;;;1.38;;
18752;SDS011;9505;50.882;5.350;2022-10-24T06:03:26;16.45;;;1.95;;
18752;SDS011;9505;50.882;5.350;2022-10-24T06:05:51;10.70;;;1.67;;
18752;SDS011;9505;50.882;5.350;2022-10-24T06:08:17;23.88;;;2.30;;
18752;SDS011;9505;50.882;5.350;2022-10-24T06:10:47;15.38;;;1.90;;
18752;SDS011;9505;50.882;5.350;2022-10-24T06:13:14;13.57;;;1.80;;
18752;SDS011;9505;50.882;5.350;2022-10-24T06:15:41;15.63;;;1.58;;
18752;SDS011;9505;50.882;5.350;2022-10-24T06:18:08;27.77;;;2.58;;
18752;SDS011;9505;50.882;5.350;2022-10-24T06:20:34;21.77;;;9.68;;
18752;SDS011;9505;50.882;5.350;2022-10-24T06:23:00;15.43;;;2.30;;
18752;SDS011;9505;50.882;5.350;2022-10-24T06:25:26;18.58;;;2.15;;
18752;SDS011;9505;50.882;5.350;2022-10-24T06:27:51;19.48;;;2.30;;
18752;SDS011;9505;50.882;5.350;2022-10-24T06:30:17;19.20;;;2.50;;
18752;SDS011;9505;50.882;5.350;2022-10-24T06:32:42;14.02;;;2.15;;
18752;SDS011;9505;50.882;5.350;2022-10-24T06:35:08;11.38;;;1.58;;
18752;SDS011;9505;50.882;5.350;2022-10-24T06:37:37;17.85;;;2.20;;
18752;SDS011;9505;50.882;5.350;2022-10-24T06:40:03;19.42;;;2.22;;
18752;SDS011;9505;50.882;5.350;2022-10-24T06:42:29;20.25;;;2.15;;
18752;SDS011;9505;50.882;5.350;2022-10-24T06:44:54;19.42;;;1.95;;
18752;SDS011;9505;50.882;5.350;2022-10-24T06:47:20;18.08;;;2.05;;
18752;SDS011;9505;50.882;5.350;2022-10-24T06:49:45;19.77;;;2.33;;
18752;SDS011;9505;50.882;5.350;2022-10-24T06:52:11;12.73;;;1.55;;
18752;SDS011;9505;50.882;5.350;2022-10-24T06:54:37;13.77;;;1.98;;
18752;SDS011;9505;50.882;5.350;2022-10-24T06:57:03;18.52;;;1.95;;
18752;SDS011;9505;50.882;5.350;2022-10-24T06:59:29;19.50;;;2.35;;
18752;SDS011;9505;50.882;5.350;2022-10-24T07:01:54;22.83;;;2.45;;
18752;SDS011;9505;50.882;5.350;2022-10-24T07:04:20;13.07;;;2.08;;
18752;SDS011;9505;50.882;5.350;2022-10-24T07:06:46;25.17;;;2.28;;
18752;SDS011;9505;50.882;5.350;2022-10-24T07:09:12;19.45;;;1.95;;
18752;SDS011;9505;50.882;5.350;2022-10-24T07:11:37;20.27;;;2.38;;
18752;SDS011;9505;50.882;5.350;2022-10-24T07:14:03;18.10;;;2.10;;
18752;SDS011;9505;50.882;5.350;2022-10-24T07:16:30;15.98;;;2.08;;
18752;SDS011;9505;50.882;5.350;2022-10-24T07:18:55;22.50;;;2.30;;
18752;SDS011;9505;50.882;5.350;2022-10-24T07:21:22;21.77;;;2.38;;
18752;SDS011;9505;50.882;5.350;2022-10-24T07:23:50;24.42;;;3.08;;
18752;SDS011;9505;50.882;5.350;2022-10-24T07:26:18;13.90;;;1.73;;
18752;SDS011;9505;50.882;5.350;2022-10-24T07:28:45;24.15;;;2.72;;
18752;SDS011;9505;50.882;5.350;2022-10-24T07:31:18;16.92;;;2.05;;
18752;SDS011;9505;50.882;5.350;2022-10-24T07:33:45;28.83;;;2.97;;
18752;SDS011;9505;50.882;5.350;2022-10-24T07:36:18;10.93;;;1.25;;
18752;SDS011;9505;50.882;5.350;2022-10-24T07:38:45;19.27;;;1.98;;
18752;SDS011;9505;50.882;5.350;2022-10-24T07:41:12;18.67;;;2.22;;
18752;SDS011;9505;50.882;5.350;2022-10-24T07:43:37;24.95;;;2.30;;
18752;SDS011;9505;50.882;5.350;2022-10-24T07:46:04;20.05;;;2.38;;
18752;SDS011;9505;50.882;5.350;2022-10-24T07:48:34;15.80;;;2.38;;
18752;SDS011;9505;50.882;5.350;2022-10-24T07:51:03;17.75;;;2.10;;
18752;SDS011;9505;50.882;5.350;2022-10-24T07:53:30;17.08;;;2.25;;
18752;SDS011;9505;50.882;5.350;2022-10-24T07:55:56;17.40;;;2.30;;
18752;SDS011;9505;50.882;5.350;2022-10-24T07:58:24;21.75;;;2.10;;
18752;SDS011;9505;50.882;5.350;2022-10-24T08:00:49;17.52;;;1.90;;
18752;SDS011;9505;50.882;5.350;2022-10-24T08:03:15;19.02;;;2.08;;
18752;SDS011;9505;50.882;5.350;2022-10-24T08:05:41;25.27;;;2.72;;
18752;SDS011;9505;50.882;5.350;2022-10-24T08:08:06;14.50;;;1.90;;
18752;SDS011;9505;50.882;5.350;2022-10-24T08:10:32;16.80;;;1.73;;
18752;SDS011;9505;50.882;5.350;2022-10-24T08:12:58;18.70;;;2.20;;
18752;SDS011;9505;50.882;5.350;2022-10-24T08:15:23;17.30;;;1.88;;
18752;SDS011;9505;50.882;5.350;2022-10-24T08:17:51;20.90;;;1.98;;
18752;SDS011;9505;50.882;5.350;2022-10-24T08:20:18;19.85;;;2.30;;
18752;SDS011;9505;50.882;5.350;2022-10-24T08:22:44;18.88;;;2.15;;
18752;SDS011;9505;50.882;5.350;2022-10-24T08:25:10;19.88;;;1.90;;
18752;SDS011;9505;50.882;5.350;2022-10-24T08:27:36;27.50;;;2.88;;
18752;SDS011;9505;50.882;5.350;2022-10-24T08:30:02;15.85;;;2.38;;
18752;SDS011;9505;50.882;5.350;2022-10-24T08:32:28;18.40;;;2.20;;
18752;SDS011;9505;50.882;5.350;2022-10-24T08:34:54;15.57;;;1.90;;
18752;SDS011;9505;50.882;5.350;2022-10-24T08:37:19;21.55;;;2.60;;
18752;SDS011;9505;50.882;5.350;2022-10-24T08:39:45;17.20;;;1.73;;
18752;SDS011;9505;50.882;5.350;2022-10-24T08:42:12;19.00;;;1.95;;
18752;SDS011;9505;50.882;5.350;2022-10-24T08:44:40;20.48;;;2.05;;
18752;SDS011;9505;50.882;5.350;2022-10-24T08:52:55;22.65;;;2.42;;
18752;SDS011;9505;50.882;5.350;2022-10-24T08:55:44;17.52;;;2.17;;
18752;SDS011;9505;50.882;5.350;2022-10-24T08:58:17;18.70;;;2.20;;
18752;SDS011;9505;50.882;5.350;2022-10-24T09:00:47;16.05;;;1.90;;
18752;SDS011;9505;50.882;5.350;2022-10-24T09:03:31;17.17;;;2.15;;
18752;SDS011;9505;50.882;5.350;2022-10-24T09:06:02;17.95;;;2.50;;
18752;SDS011;9505;50.882;5.350;2022-10-24T09:13:55;23.25;;;2.80;;
18752;SDS011;9505;50.882;5.350;2022-10-24T09:16:24;22.67;;;2.28;;
18752;SDS011;9505;50.882;5.350;2022-10-24T09:18:52;17.25;;;2.13;;
18752;SDS011;9505;50.882;5.350;2022-10-24T09:21:19;11.70;;;1.75;;
18752;SDS011;9505;50.882;5.350;2022-10-24T09:23:46;14.93;;;2.15;;
18752;SDS011;9505;50.882;5.350;2022-10-24T09:26:15;17.35;;;2.63;;
18752;SDS011;9505;50.882;5.350;2022-10-24T09:28:46;19.20;;;2.40;;
18752;SDS011;9505;50.882;5.350;2022-10-24T09:31:15;30.75;;;3.85;;
18752;SDS011;9505;50.882;5.350;2022-10-24T09:33:44;18.83;;;2.08;;
18752;SDS011;9505;50.882;5.350;2022-10-24T09:36:12;15.15;;;2.30;;
18752;SDS011;9505;50.882;5.350;2022-10-24T09:38:40;13.15;;;1.77;;
18752;SDS011;9505;50.882;5.350;2022-10-24T09:44:10;14.63;;;2.08;;
18752;SDS011;9505;50.882;5.350;2022-10-24T09:47:03;29.00;;;3.63;;
18752;SDS011;9505;50.882;5.350;2022-10-24T09:49:37;15.02;;;2.10;;
18752;SDS011;9505;50.882;5.350;2022-10-24T09:54:43;17.10;;;2.20;;
18752;SDS011;9505;50.882;5.350;2022-10-24T09:59:36;16.48;;;2.38;;
18752;SDS011;9505;50.882;5.350;2022-10-24T10:02:19;25.10;;;2.95;;
18752;SDS011;9505;50.882;5.350;2022-10-24T10:04:55;21.10;;;2.55;;
18752;SDS011;9505;50.882;5.350;2022-10-24T10:07:39;31.95;;;2.92;;
18752;SDS011;9505;50.882;5.350;2022-10-24T10:18:28;14.48;;;2.28;;
18752;SDS011;9505;50.882;5.350;2022-10-24T10:21:17;20.23;;;2.60;;
18752;SDS011;9505;50.882;5.350;2022-10-24T10:23:51;26.45;;;2.83;;
18752;SDS011;9505;50.882;5.350;2022-10-24T10:26:20;18.00;;;2.50;;
18752;SDS011;9505;50.882;5.350;2022-10-24T10:31:46;23.70;;;2.78;;
18752;SDS011;9505;50.882;5.350;2022-10-24T10:42:34;15.25;;;2.17;;
18752;SDS011;9505;50.882;5.350;2022-10-24T10:45:29;23.83;;;3.03;;
18752;SDS011;9505;50.882;5.350;2022-10-24T11:06:59;14.90;;;2.05;;
18752;SDS011;9505;50.882;5.350;2022-10-24T11:09:35;22.38;;;2.22;;
18752;SDS011;9505;50.882;5.350;2022-10-24T11:14:42;16.48;;;1.85;;
18752;SDS011;9505;50.882;5.350;2022-10-24T11:17:36;16.02;;;2.20;;
18752;SDS011;9505;50.882;5.350;2022-10-24T11:20:26;21.55;;;2.63;;
18752;SDS011;9505;50.882;5.350;2022-10-24T11:23:00;21.63;;;2.78;;
18752;SDS011;9505;50.882;5.350;2022-10-24T11:25:30;24.42;;;2.38;;
18752;SDS011;9505;50.882;5.350;2022-10-24T11:28:25;24.77;;;2.75;;
18752;SDS011;9505;50.882;5.350;2022-10-24T11:31:00;20.80;;;2.65;;
18752;SDS011;9505;50.882;5.350;2022-10-24T11:34:02;14.77;;;1.70;;
18752;SDS011;9505;50.882;5.350;2022-10-24T11:39:12;23.15;;;2.70;;
18752;SDS011;9505;50.882;5.350;2022-10-24T11:44:55;18.85;;;2.15;;
18752;SDS011;9505;50.882;5.350;2022-10-24T11:50:12;20.05;;;2.30;;
18752;SDS011;9505;50.882;5.350;2022-10-24T11:55:45;20.73;;;2.55;;
18752;SDS011;9505;50.882;5.350;2022-10-24T11:58:19;18.02;;;2.17;;
18752;SDS011;9505;50.882;5.350;2022-10-24T12:06:47;15.20;;;2.40;;
18752;SDS011;9505;50.882;5.350;2022-10-24T12:09:38;15.75;;;2.08;;
18752;SDS011;9505;50.882;5.350;2022-10-24T12:18:09;18.45;;;2.25;;
18752;SDS011;9505;50.882;5.350;2022-10-24T12:20:45;12.73;;;1.70;;
18752;SDS011;9505;50.882;5.350;2022-10-24T12:23:19;19.55;;;2.63;;
18752;SDS011;9505;50.882;5.350;2022-10-24T12:26:00;11.63;;;1.77;;
18752;SDS011;9505;50.882;5.350;2022-10-24T12:28:38;20.13;;;2.35;;
18752;SDS011;9505;50.882;5.350;2022-10-24T12:33:37;17.65;;;2.15;;
18752;SDS011;9505;50.882;5.350;2022-10-24T12:36:03;29.35;;;3.58;;
18752;SDS011;9505;50.882;5.350;2022-10-24T12:41:01;24.85;;;2.80;;
18752;SDS011;9505;50.882;5.350;2022-10-24T12:43:37;30.92;;;3.35;;
18752;SDS011;9505;50.882;5.350;2022-10-24T12:48:41;23.27;;;3.95;;
18752;SDS011;9505;50.882;5.350;2022-10-24T12:57:14;26.48;;;2.72;;
18752;SDS011;9505;50.882;5.350;2022-10-24T12:59:30;21.23;;;2.65;;
18752;SDS011;9505;50.882;5.350;2022-10-24T13:10:23;15.48;;;2.20;;
18752;SDS011;9505;50.882;5.350;2022-10-24T13:26:43;33.65;;;3.80;;
18752;SDS011;9505;50.882;5.350;2022-10-24T13:29:13;33.95;;;3.83;;
18752;SDS011;9505;50.882;5.350;2022-10-24T13:34:16;30.25;;;3.83;;
18752;SDS011;9505;50.882;5.350;2022-10-24T13:36:44;35.83;;;3.45;;
18752;SDS011;9505;50.882;5.350;2022-10-24T13:39:23;39.38;;;4.80;;
18752;SDS011;9505;50.882;5.350;2022-10-24T13:41:57;23.58;;;3.17;;
18752;SDS011;9505;50.882;5.350;2022-10-24T13:47:04;43.55;;;5.05;;
18752;SDS011;9505;50.882;5.350;2022-10-24T13:52:42;37.65;;;4.00;;
18752;SDS011;9505;50.882;5.350;2022-10-24T14:00:25;56.20;;;6.32;;
18752;SDS011;9505;50.882;5.350;2022-10-24T14:02:53;55.08;;;5.50;;
18752;SDS011;9505;50.882;5.350;2022-10-24T14:08:13;72.05;;;6.95;;
18752;SDS011;9505;50.882;5.350;2022-10-24T14:10:49;30.05;;;3.40;;
18752;SDS011;9505;50.882;5.350;2022-10-24T14:13:17;61.20;;;6.38;;
18752;SDS011;9505;50.882;5.350;2022-10-24T14:15:48;66.68;;;6.95;;
18752;SDS011;9505;50.882;5.350;2022-10-24T14:18:18;62.95;;;6.03;;
18752;SDS011;9505;50.882;5.350;2022-10-24T14:20:49;39.63;;;4.10;;
18752;SDS011;9505;50.882;5.350;2022-10-24T14:23:29;58.97;;;5.97;;
18752;SDS011;9505;50.882;5.350;2022-10-24T14:28:33;108.45;;;10.60;;
18752;SDS011;9505;50.882;5.350;2022-10-24T14:31:05;67.47;;;6.93;;
18752;SDS011;9505;50.882;5.350;2022-10-24T14:33:46;74.57;;;7.53;;
18752;SDS011;9505;50.882;5.350;2022-10-24T14:36:14;64.80;;;6.80;;
18752;SDS011;9505;50.882;5.350;2022-10-24T14:38:41;69.38;;;7.35;;
18752;SDS011;9505;50.882;5.350;2022-10-24T14:41:07;81.70;;;8.82;;
18752;SDS011;9505;50.882;5.350;2022-10-24T14:43:40;51.90;;;4.97;;
18752;SDS011;9505;50.882;5.350;2022-10-24T14:46:16;62.60;;;6.75;;
18752;SDS011;9505;50.882;5.350;2022-10-24T14:49:18;38.63;;;4.63;;
18752;SDS011;9505;50.882;5.350;2022-10-24T14:51:50;39.45;;;4.30;;
18752;SDS011;9505;50.882;5.350;2022-10-24T14:54:21;26.10;;;2.92;;
18752;SDS011;9505;50.882;5.350;2022-10-24T14:56:49;37.33;;;3.97;;
18752;SDS011;9505;50.882;5.350;2022-10-24T14:59:23;22.40;;;2.50;;
18752;SDS011;9505;50.882;5.350;2022-10-24T15:02:10;51.20;;;5.43;;
18752;SDS011;9505;50.882;5.350;2022-10-24T15:04:47;32.10;;;3.95;;
18752;SDS011;9505;50.882;5.350;2022-10-24T15:15:24;10.13;;;1.77;;
18752;SDS011;9505;50.882;5.350;2022-10-24T15:17:52;59.33;;;6.50;;
18752;SDS011;9505;50.882;5.350;2022-10-24T15:20:23;57.35;;;6.32;;
18752;SDS011;9505;50.882;5.350;2022-10-24T15:22:55;64.00;;;6.65;;
18752;SDS011;9505;50.882;5.350;2022-10-24T15:25:33;37.50;;;3.83;;
18752;SDS011;9505;50.882;5.350;2022-10-24T15:28:01;53.33;;;5.88;;
18752;SDS011;9505;50.882;5.350;2022-10-24T15:30:30;45.78;;;5.28;;
18752;SDS011;9505;50.882;5.350;2022-10-24T15:33:01;41.15;;;4.40;;
18752;SDS011;9505;50.882;5.350;2022-10-24T15:35:27;27.00;;;3.17;;
18752;SDS011;9505;50.882;5.350;2022-10-24T15:37:55;18.77;;;2.25;;
18752;SDS011;9505;50.882;5.350;2022-10-24T15:40:30;17.60;;;1.80;;
18752;SDS011;9505;50.882;5.350;2022-10-24T15:42:58;17.08;;;1.98;;
18752;SDS011;9505;50.882;5.350;2022-10-24T15:45:24;40.35;;;4.97;;
18752;SDS011;9505;50.882;5.350;2022-10-24T15:47:50;50.95;;;6.50;;
18752;SDS011;9505;50.882;5.350;2022-10-24T15:50:17;50.38;;;5.25;;
18752;SDS011;9505;50.882;5.350;2022-10-24T15:52:48;36.72;;;3.83;;
18752;SDS011;9505;50.882;5.350;2022-10-24T15:55:23;18.58;;;3.08;;
18752;SDS011;9505;50.882;5.350;2022-10-24T15:57:50;34.47;;;3.45;;
18752;SDS011;9505;50.882;5.350;2022-10-24T16:00:17;23.63;;;2.58;;
18752;SDS011;9505;50.882;5.350;2022-10-24T16:02:45;16.42;;;2.20;;
18752;SDS011;9505;50.882;5.350;2022-10-24T16:05:15;29.27;;;3.33;;
18752;SDS011;9505;50.882;5.350;2022-10-24T16:07:50;25.10;;;2.80;;
18752;SDS011;9505;50.882;5.350;2022-10-24T16:10:16;51.25;;;5.80;;
18752;SDS011;9505;50.882;5.350;2022-10-24T16:12:44;59.53;;;6.53;;
18752;SDS011;9505;50.882;5.350;2022-10-24T16:15:30;37.17;;;4.15;;
18752;SDS011;9505;50.882;5.350;2022-10-24T16:17:58;40.97;;;4.47;;
18752;SDS011;9505;50.882;5.350;2022-10-24T16:20:24;62.03;;;6.63;;
18752;SDS011;9505;50.882;5.350;2022-10-24T16:22:50;53.30;;;5.97;;
18752;SDS011;9505;50.882;5.350;2022-10-24T16:27:43;25.30;;;2.72;;
18752;SDS011;9505;50.882;5.350;2022-10-24T16:30:09;42.95;;;4.55;;
18752;SDS011;9505;50.882;5.350;2022-10-24T16:32:36;68.03;;;7.00;;
18752;SDS011;9505;50.882;5.350;2022-10-24T16:35:02;29.65;;;4.47;;
18752;SDS011;9505;50.882;5.350;2022-10-24T16:37:27;19.98;;;2.58;;
18752;SDS011;9505;50.882;5.350;2022-10-24T16:39:53;37.13;;;4.38;;
18752;SDS011;9505;50.882;5.350;2022-10-24T16:42:19;57.97;;;5.70;;
18752;SDS011;9505;50.882;5.350;2022-10-24T16:44:46;35.30;;;4.53;;
18752;SDS011;9505;50.882;5.350;2022-10-24T16:47:12;16.00;;;2.13;;
18752;SDS011;9505;50.882;5.350;2022-10-24T16:49:37;32.63;;;4.25;;
18752;SDS011;9505;50.882;5.350;2022-10-24T16:52:03;20.17;;;2.83;;
18752;SDS011;9505;50.882;5.350;2022-10-24T16:54:28;16.33;;;2.67;;
18752;SDS011;9505;50.882;5.350;2022-10-24T16:56:55;20.63;;;2.75;;
18752;SDS011;9505;50.882;5.350;2022-10-24T16:59:21;11.90;;;2.00;;
18752;SDS011;9505;50.882;5.350;2022-10-24T17:01:47;31.15;;;3.88;;
18752;SDS011;9505;50.882;5.350;2022-10-24T17:04:13;20.27;;;2.67;;
18752;SDS011;9505;50.882;5.350;2022-10-24T17:06:38;24.77;;;3.95;;
18752;SDS011;9505;50.882;5.350;2022-10-24T17:09:04;21.98;;;3.33;;
18752;SDS011;9505;50.882;5.350;2022-10-24T17:11:30;31.17;;;4.40;;
18752;SDS011;9505;50.882;5.350;2022-10-24T17:13:55;24.65;;;3.33;;
18752;SDS011;9505;50.882;5.350;2022-10-24T17:16:21;24.85;;;3.10;;
18752;SDS011;9505;50.882;5.350;2022-10-24T17:18:46;37.15;;;4.72;;
18752;SDS011;9505;50.882;5.350;2022-10-24T17:21:12;21.73;;;2.90;;
18752;SDS011;9505;50.882;5.350;2022-10-24T17:23:38;38.95;;;4.53;;
18752;SDS011;9505;50.882;5.350;2022-10-24T17:26:11;55.38;;;6.43;;
18752;SDS011;9505;50.882;5.350;2022-10-24T17:28:39;73.25;;;7.32;;
18752;SDS011;9505;50.882;5.350;2022-10-24T17:31:04;57.25;;;6.85;;
18752;SDS011;9505;50.882;5.350;2022-10-24T17:33:30;29.40;;;4.00;;
18752;SDS011;9505;50.882;5.350;2022-10-24T17:35:56;25.58;;;3.42;;
18752;SDS011;9505;50.882;5.350;2022-10-24T17:41:18;50.60;;;5.78;;
18752;SDS011;9505;50.882;5.350;2022-10-24T17:43:54;50.42;;;5.82;;
18752;SDS011;9505;50.882;5.350;2022-10-24T17:46:20;68.07;;;7.65;;
18752;SDS011;9505;50.882;5.350;2022-10-24T17:48:46;61.47;;;6.53;;
18752;SDS011;9505;50.882;5.350;2022-10-24T17:51:12;19.38;;;2.58;;